Van Voorhis, Pennsylvania
Current Conditions -  °F | °C
As of 12:53 AM on Saturday 25 Oct 2014 (Local Time) from KAGC Reporting Station
Broken Clouds Broken Clouds  
Wind Chill: 44°   Ceiling: 5000
Heat Index: 48°   Visibility: 10mi
Dew Point: 36°   Wind: 9mph
Humidity: 63%   Direction: 190°S
Pressure: 30"   Gusts: NA
Location:  40.16°N, 79.97°W
Report Text: KAGC 250453Z 19008KT 10SM FEW042 BKN050 09/02 A3000 RMK AO2 SLP164 T00890022 401500044
Loading
Personal Weather Stations






























Interactive Weather Map
Tropical Storm Tracking
New forecast layout! Learn more

10-Day Weather Forecast

Advertisements
Track Severe Weather on mobile